CYQW

Details ICAO CYQW (YQW)
Name North Battleford (Cameron McIntosh)
Region Canada
Timezone America/Regina (UTC-6.0)
Plans Departing 5
Arriving 1
Stats Elevation 1,799 ft / 548 m (AMSL)
Location 52.768033° -108.245285°
Runways 2
Magnetic Variation 11.409° E
Sunrise 2017-12-11 15:16:46 UTC / 2017-12-11 09:16:46 Local
Sunset 2017-12-11 22:58:53 UTC / 2017-12-11 16:58:53 Local
Advertisement - Login to hide

Runways

ID Width Length Bearing (true) Bearing (mag) Surface Threshold Offset Overrun Length
06 49 ft / 15 m 2,594 ft / 791 m 76.00° 64.59° Asphalt 0 ft / 0 m 0 ft / 0 m
12 151 ft / 46 m 5,069 ft / 1,545 m 135.99° 124.58° Asphalt 0 ft / 0 m 0 ft / 0 m
24 49 ft / 15 m 2,594 ft / 791 m 256.00° 244.59° Asphalt 0 ft / 0 m 0 ft / 0 m
30 151 ft / 46 m 5,069 ft / 1,545 m 316.01° 304.60° Asphalt 0 ft / 0 m 0 ft / 0 m

Map

Weather


0- 5 10 15 20 25 30 35+ Temperature / ° C

Clouds and Precipitation
Forecast for 2017-12-11 18:00 UTC. Updated 2 hours ago

Ground ~20,000 ft ~40,000 ft Winds

METAR

CYQW 111900Z AUTO 24006KT 9SM CLR M00/M04 A3032 RMK SLP295

TAF

TAF CYQW 111740Z 1118/1206 28008KT P6SM SKC FM120000 20006KT P6SM SCT040 BKN080 OVC200 PROB30 1203/1206 P6SM -FZRA OVC040 RMK FCST BASED ON AUTO OBS. NXT FCST BY 120000Z

Frequencies

Tower 122.10 MHz MF
Warning: Do not use this data for real-world aviation or navigation. No guarantee of current accuracy is given.